createdAt,value
2022-10-18T00:01:07.349Z,102362.00
2022-10-18T00:03:35.386Z,102365.53
2022-10-18T00:06:04.318Z,102364.63
2022-10-18T00:08:31.841Z,102366.47
2022-10-18T00:10:59.093Z,102362.06
2022-10-18T00:13:26.281Z,102344.50
2022-10-18T00:16:02.803Z,102350.63
2022-10-18T00:18:30.460Z,102352.41
2022-10-18T00:21:17.417Z,102350.78
2022-10-18T00:23:46.734Z,102351.72
2022-10-18T00:26:26.082Z,102350.78
2022-10-18T00:29:05.212Z,102349.00
2022-10-18T00:31:38.465Z,102348.13
2022-10-18T00:34:13.210Z,102352.50
2022-10-18T00:36:41.491Z,102357.84
2022-10-18T00:39:15.586Z,102359.63
2022-10-18T00:41:42.958Z,102359.63
2022-10-18T00:44:12.956Z,102358.69
2022-10-18T00:46:45.883Z,102349.16
2022-10-18T00:49:30.362Z,102355.06
2022-10-18T00:52:11.623Z,102351.56
2022-10-18T00:54:44.665Z,102357.69
2022-10-18T00:57:13.559Z,102356.84
2022-10-18T00:59:43.063Z,102356.84
2022-10-18T01:02:11.502Z,102354.28
2022-10-18T01:04:38.821Z,102356.13
2022-10-18T01:07:49.278Z,102365.13
2022-10-18T01:11:20.181Z,102368.69
2022-10-18T01:14:34.690Z,102375.84
2022-10-18T01:17:19.969Z,102382.88
2022-10-18T01:20:53.709Z,102381.13
2022-10-18T01:24:07.635Z,102372.31
2022-10-18T01:27:03.799Z,102369.69
2022-10-18T01:30:36.461Z,102369.63
2022-10-18T01:33:29.743Z,102374.03
2022-10-18T01:36:28.703Z,102375.84
2022-10-18T01:39:03.419Z,102370.56
2022-10-18T01:41:30.894Z,102366.28
2022-10-18T01:44:02.843Z,102370.72
2022-10-18T01:46:30.420Z,102363.78
2022-10-18T01:48:58.688Z,102369.06
2022-10-18T01:51:30.507Z,102364.69
2022-10-18T01:53:58.476Z,102375.25
2022-10-18T01:56:35.926Z,102378.75
2022-10-18T01:59:28.313Z,102368.22
2022-10-18T02:02:45.088Z,102369.06
2022-10-18T02:05:56.562Z,102370.84
2022-10-18T02:08:32.167Z,102371.84
2022-10-18T02:11:08.458Z,102376.19
2022-10-18T02:13:57.823Z,102375.31
2022-10-18T02:16:56.925Z,102373.72
2022-10-18T02:19:46.292Z,102377.19
2022-10-18T02:22:17.321Z,102373.78
2022-10-18T02:24:57.595Z,102368.56
2022-10-18T02:27:25.759Z,102369.50
2022-10-18T02:29:54.253Z,102369.56
2022-10-18T02:32:59.556Z,102371.44
2022-10-18T02:35:37.559Z,102372.34
2022-10-18T02:38:10.170Z,102367.97
2022-10-18T02:40:37.662Z,102367.06
2022-10-18T02:43:07.506Z,102367.00
2022-10-18T02:45:35.090Z,102370.56
2022-10-18T02:48:02.331Z,102374.13
2022-10-18T02:50:29.563Z,102383.00
2022-10-18T02:52:56.749Z,102380.38
2022-10-18T02:55:24.010Z,102382.22
2022-10-18T02:57:51.185Z,102384.88
2022-10-18T03:00:18.487Z,102384.94
2022-10-18T03:02:49.294Z,102390.16
2022-10-18T03:05:16.706Z,102385.63
2022-10-18T03:07:43.908Z,102389.00
2022-10-18T03:10:11.144Z,102388.16
2022-10-18T03:12:38.366Z,102386.44
2022-10-18T03:15:06.340Z,102383.75
2022-10-18T03:17:33.805Z,102382.03
2022-10-18T03:20:01.227Z,102394.28
2022-10-18T03:24:56.583Z,102391.59
2022-10-18T03:27:23.847Z,102381.03
2022-10-18T03:29:50.987Z,102380.03
2022-10-18T03:32:19.456Z,102379.19
2022-10-18T03:34:46.667Z,102381.91
2022-10-18T03:37:13.964Z,102389.81
2022-10-18T03:39:41.111Z,102386.38
2022-10-18T03:42:11.231Z,102392.59
2022-10-18T03:44:38.410Z,102389.13
2022-10-18T03:47:05.538Z,102390.16
2022-10-18T03:52:00.727Z,102388.56
2022-10-18T03:54:27.952Z,102386.84
2022-10-18T03:56:55.095Z,102396.47
2022-10-18T03:59:22.993Z,102385.06
2022-10-18T04:01:50.490Z,102379.81
2022-10-18T04:04:20.113Z,102378.00
2022-10-18T04:06:49.678Z,102367.38
2022-10-18T04:09:16.878Z,102372.66
2022-10-18T04:11:44.200Z,102376.00
2022-10-18T04:14:11.404Z,102375.09
2022-10-18T04:16:38.640Z,102386.50
2022-10-18T04:19:05.813Z,102383.06
2022-10-18T04:21:33.035Z,102374.31
2022-10-18T04:24:00.479Z,102369.97
2022-10-18T04:26:27.718Z,102366.47
2022-10-18T04:28:54.925Z,102379.81
2022-10-18T04:31:22.421Z,102385.06
2022-10-18T04:33:49.734Z,102385.16
2022-10-18T04:36:16.986Z,102390.50
2022-10-18T04:38:44.161Z,102390.50
2022-10-18T04:41:11.301Z,102395.84
2022-10-18T04:43:38.556Z,102397.63
2022-10-18T04:46:06.055Z,102392.44
2022-10-18T04:48:33.251Z,102388.13
2022-10-18T04:51:00.437Z,102390.06
2022-10-18T04:53:27.794Z,102391.97
2022-10-18T04:55:54.986Z,102392.09
2022-10-18T04:58:22.337Z,102385.13
2022-10-18T05:00:50.205Z,102380.84
2022-10-18T05:03:19.916Z,102376.56
2022-10-18T05:06:01.250Z,102386.25
2022-10-18T05:08:31.425Z,102387.31
2022-10-18T05:10:59.055Z,102396.31
2022-10-18T05:13:26.463Z,102398.25
2022-10-18T05:15:53.721Z,102398.31
2022-10-18T05:18:21.099Z,102409.88
2022-10-18T05:20:48.386Z,102415.16
2022-10-18T05:23:15.606Z,102411.63
2022-10-18T05:25:44.026Z,102412.59
2022-10-18T05:28:34.661Z,102414.47
2022-10-18T05:31:04.229Z,102414.47
2022-10-18T05:33:34.538Z,102418.06
2022-10-18T05:36:01.895Z,102421.59
2022-10-18T05:38:31.113Z,102424.25
2022-10-18T05:41:03.660Z,102415.56
2022-10-18T05:43:30.901Z,102421.03
2022-10-18T05:45:58.064Z,102419.44
2022-10-18T05:48:25.514Z,102421.34
2022-10-18T05:50:52.890Z,102419.69
2022-10-18T05:53:37.206Z,102423.28
2022-10-18T05:56:07.231Z,102427.06
2022-10-18T05:58:35.217Z,102428.81
2022-10-18T06:01:05.233Z,102429.78
2022-10-18T06:03:34.019Z,102435.03
2022-10-18T06:06:11.914Z,102431.59
2022-10-18T06:08:42.633Z,102434.28
2022-10-18T06:11:20.391Z,102431.66
2022-10-18T06:13:50.502Z,102432.66
2022-10-18T06:16:22.266Z,102437.09
2022-10-18T06:18:55.645Z,102436.41
2022-10-18T06:21:25.110Z,102435.47
2022-10-18T06:23:56.946Z,102441.72
2022-10-18T06:26:26.644Z,102441.84
2022-10-18T06:28:53.900Z,102437.56
2022-10-18T06:31:22.902Z,102449.03
2022-10-18T06:33:50.573Z,102449.94
2022-10-18T06:36:24.049Z,102456.00
2022-10-18T06:38:51.937Z,102472.66
2022-10-18T06:41:20.447Z,102469.16
2022-10-18T06:43:53.291Z,102482.13
2022-10-18T06:46:20.778Z,102477.69
2022-10-18T06:48:48.008Z,102483.81
2022-10-18T06:51:15.459Z,102476.75
2022-10-18T06:53:53.488Z,102480.25
2022-10-18T06:56:30.554Z,102483.03
2022-10-18T07:01:25.869Z,102497.94
2022-10-18T07:03:54.452Z,102496.31
2022-10-18T07:06:24.200Z,102499.06
2022-10-18T07:08:55.581Z,102502.66
2022-10-18T07:11:26.773Z,102516.81
2022-10-18T07:14:06.036Z,102510.81
2022-10-18T07:16:34.690Z,102509.97
2022-10-18T07:19:02.531Z,102513.50
2022-10-18T07:21:29.917Z,102516.97
2022-10-18T07:23:57.733Z,102522.13
2022-10-18T07:26:31.078Z,102526.38
2022-10-18T07:29:12.046Z,102538.63
2022-10-18T07:31:40.930Z,102539.53
2022-10-18T07:34:12.745Z,102547.25
2022-10-18T07:36:41.310Z,102547.25
2022-10-18T07:39:08.850Z,102546.47
2022-10-18T07:41:36.314Z,102555.09
2022-10-18T07:44:05.304Z,102557.50
2022-10-18T07:46:32.733Z,102558.09
2022-10-18T07:48:59.910Z,102561.56
2022-10-18T07:51:28.176Z,102573.53
2022-10-18T07:53:55.404Z,102578.69
2022-10-18T07:56:22.854Z,102568.28
2022-10-18T07:58:56.245Z,102568.28
2022-10-18T08:01:25.478Z,102582.44
2022-10-18T08:03:54.771Z,102581.56
2022-10-18T08:06:23.825Z,102598.25
2022-10-18T08:08:52.194Z,102597.94
2022-10-18T08:11:24.494Z,102597.84
2022-10-18T08:13:53.798Z,102595.38
2022-10-18T08:18:59.722Z,102602.66
2022-10-18T08:21:27.526Z,102600.13
2022-10-18T08:23:55.102Z,102603.72
2022-10-18T08:26:24.104Z,102603.66
2022-10-18T08:29:10.231Z,102599.22
2022-10-18T08:31:37.856Z,102602.75
2022-10-18T08:34:05.033Z,102612.41
2022-10-18T08:36:32.274Z,102611.38
2022-10-18T08:38:59.496Z,102621.03
2022-10-18T08:41:38.412Z,102633.19
2022-10-18T08:44:15.884Z,102625.16
2022-10-18T08:46:55.889Z,102609.34
2022-10-18T08:49:45.589Z,102615.34
2022-10-18T08:56:03.419Z,102622.41
2022-10-18T08:58:33.507Z,102616.41
2022-10-18T09:01:15.572Z,102626.81
2022-10-18T09:04:28.591Z,102631.16
2022-10-18T09:07:42.462Z,102627.53
2022-10-18T09:10:19.949Z,102625.75
2022-10-18T09:13:27.900Z,102632.03
2022-10-18T09:16:07.977Z,102632.94
2022-10-18T09:19:19.552Z,102634.72
2022-10-18T09:22:05.088Z,102642.56
2022-10-18T09:25:22.901Z,102643.34
2022-10-18T09:28:45.525Z,102635.41
2022-10-18T09:32:14.396Z,102642.34
2022-10-18T09:35:29.972Z,102631.66
2022-10-18T09:38:11.420Z,102629.69
2022-10-18T09:41:08.639Z,102634.00
2022-10-18T09:44:09.648Z,102633.00
2022-10-18T09:46:51.264Z,102619.56
2022-10-18T09:49:29.359Z,102630.13
2022-10-18T09:52:01.928Z,102637.97
2022-10-18T09:54:33.672Z,102637.78
2022-10-18T09:57:19.367Z,102636.75
2022-10-18T09:59:49.742Z,102633.91
2022-10-18T10:02:23.756Z,102638.94
2022-10-18T10:04:54.274Z,102639.66
2022-10-18T10:07:43.227Z,102635.84
2022-10-18T10:10:26.537Z,102635.53
2022-10-18T10:13:26.189Z,102636.88
2022-10-18T10:16:04.015Z,102648.47
2022-10-18T10:18:38.992Z,102647.59
2022-10-18T10:21:14.900Z,102644.00
2022-10-18T10:23:59.622Z,102643.41
2022-10-18T10:26:38.873Z,102642.31
2022-10-18T10:29:53.924Z,102650.59
2022-10-18T10:32:28.881Z,102660.69
2022-10-18T10:34:57.934Z,102657.75
2022-10-18T10:37:30.691Z,102661.63
2022-10-18T10:40:20.428Z,102668.06
2022-10-18T10:43:25.663Z,102665.56
2022-10-18T10:46:10.851Z,102673.84
2022-10-18T10:49:21.034Z,102663.50
2022-10-18T10:51:53.722Z,102665.00
2022-10-18T10:54:47.543Z,102670.59
2022-10-18T10:57:27.673Z,102671.97
2022-10-18T11:00:01.883Z,102681.66
2022-10-18T11:02:35.516Z,102671.66
2022-10-18T11:05:29.412Z,102675.88
2022-10-18T11:08:04.228Z,102671.94
2022-10-18T11:11:26.289Z,102674.09
2022-10-18T11:14:26.266Z,102676.16
2022-10-18T11:17:00.437Z,102669.69
2022-10-18T11:19:39.484Z,102677.63
2022-10-18T11:22:18.581Z,102685.59
2022-10-18T11:24:46.035Z,102674.81
2022-10-18T11:27:28.066Z,102674.09
2022-10-18T11:30:43.569Z,102673.50
2022-10-18T11:34:03.450Z,102674.44
2022-10-18T11:37:26.381Z,102673.94
2022-10-18T11:40:40.828Z,102670.34
2022-10-18T11:43:30.231Z,102668.72
2022-10-18T11:46:06.414Z,102675.06
2022-10-18T11:48:59.591Z,102670.78
2022-10-18T11:52:07.390Z,102667.38
2022-10-18T11:55:30.346Z,102673.00
2022-10-18T11:58:08.814Z,102666.44
2022-10-18T12:00:57.360Z,102664.41
2022-10-18T12:04:08.163Z,102657.13
2022-10-18T12:06:41.883Z,102654.22
2022-10-18T12:09:40.181Z,102658.16
2022-10-18T12:12:29.888Z,102642.16
2022-10-18T12:15:29.811Z,102648.81
2022-10-18T12:18:06.105Z,102649.31
2022-10-18T12:20:40.314Z,102651.97
2022-10-18T12:23:53.161Z,102656.69
2022-10-18T12:26:22.390Z,102659.59
2022-10-18T12:29:38.887Z,102649.00
2022-10-18T12:32:19.031Z,102648.56
2022-10-18T12:35:17.762Z,102641.75
2022-10-18T12:38:14.801Z,102634.41
2022-10-18T12:40:49.573Z,102644.66
2022-10-18T12:43:38.283Z,102644.19
2022-10-18T12:46:13.565Z,102634.16
2022-10-18T12:49:01.050Z,102637.31
2022-10-18T12:51:28.694Z,102635.50
2022-10-18T12:54:02.029Z,102635.59
2022-10-18T12:56:29.061Z,102631.50
2022-10-18T12:59:19.613Z,102630.16
2022-10-18T13:01:55.029Z,102637.94
2022-10-18T13:04:28.170Z,102638.50
2022-10-18T13:06:58.465Z,102632.66
2022-10-18T13:09:39.334Z,102631.44
2022-10-18T13:12:15.104Z,102634.28
2022-10-18T13:15:37.058Z,102628.31
2022-10-18T13:18:33.219Z,102625.66
2022-10-18T13:21:55.434Z,102623.56
2022-10-18T13:24:38.527Z,102624.81
2022-10-18T13:27:36.032Z,102623.28
2022-10-18T13:30:52.515Z,102612.75
2022-10-18T13:33:40.045Z,102619.19
2022-10-18T13:36:25.195Z,102617.03
2022-10-18T13:38:57.955Z,102619.59
2022-10-18T13:41:42.306Z,102614.38
2022-10-18T13:44:37.875Z,102612.63
2022-10-18T13:47:04.953Z,102622.69
2022-10-18T13:50:12.617Z,102627.72
2022-10-18T13:54:03.007Z,102622.97
2022-10-18T13:56:41.569Z,102625.53
2022-10-18T14:00:13.387Z,102629.06
2022-10-18T14:03:44.061Z,102625.44
2022-10-18T14:06:36.501Z,102620.50
2022-10-18T14:09:44.562Z,102623.25
2022-10-18T14:12:35.401Z,102629.63
2022-10-18T14:15:35.142Z,102623.19
2022-10-18T14:18:28.983Z,102629.72
2022-10-18T14:21:21.633Z,102622.25
2022-10-18T14:23:50.910Z,102625.47
2022-10-18T14:26:23.010Z,102632.59
2022-10-18T14:29:16.035Z,102636.38
2022-10-18T14:31:54.791Z,102635.13
2022-10-18T14:34:23.380Z,102628.69
2022-10-18T14:36:51.757Z,102631.00
2022-10-18T14:39:26.672Z,102634.31
2022-10-18T14:41:58.115Z,102627.56
2022-10-18T14:44:34.774Z,102626.88
2022-10-18T14:47:15.077Z,102635.19
2022-10-18T14:49:46.256Z,102635.56
2022-10-18T14:52:26.185Z,102629.72
2022-10-18T14:54:58.093Z,102627.25
2022-10-18T14:57:37.494Z,102626.59
2022-10-18T15:00:30.312Z,102630.44
2022-10-18T15:02:57.842Z,102624.94
2022-10-18T15:05:26.979Z,102626.22
2022-10-18T15:07:55.462Z,102626.63
2022-10-18T15:10:35.164Z,102624.00
2022-10-18T15:13:09.763Z,102630.22
2022-10-18T15:15:39.336Z,102629.25
2022-10-18T15:18:08.173Z,102629.91
2022-10-18T15:20:42.906Z,102638.06
2022-10-18T15:23:26.641Z,102624.22
2022-10-18T15:26:11.010Z,102617.66
2022-10-18T15:28:53.300Z,102629.53
2022-10-18T15:31:34.953Z,102626.03
2022-10-18T15:34:15.705Z,102632.72
2022-10-18T15:36:45.993Z,102635.50
2022-10-18T15:39:21.132Z,102641.72
2022-10-18T15:42:01.939Z,102633.34
2022-10-18T15:44:48.837Z,102625.16
2022-10-18T15:47:24.982Z,102633.00
2022-10-18T15:49:58.774Z,102626.94
2022-10-18T15:52:43.870Z,102624.25
2022-10-18T15:55:33.928Z,102631.00
2022-10-18T15:58:11.212Z,102640.47
2022-10-18T16:00:38.567Z,102640.16
2022-10-18T16:03:09.834Z,102626.38
2022-10-18T16:05:38.739Z,102625.25
2022-10-18T16:08:06.653Z,102626.75
2022-10-18T16:10:33.924Z,102627.34
2022-10-18T16:13:01.187Z,102637.63
2022-10-18T16:15:28.510Z,102631.09
2022-10-18T16:17:55.767Z,102642.22
2022-10-18T16:20:26.820Z,102646.25
2022-10-18T16:22:53.995Z,102632.66
2022-10-18T16:25:23.280Z,102642.06
2022-10-18T16:27:50.463Z,102645.31
2022-10-18T16:30:22.990Z,102649.19
2022-10-18T16:32:50.204Z,102645.28
2022-10-18T16:35:21.432Z,102644.72
2022-10-18T16:37:48.583Z,102645.06
2022-10-18T16:40:26.847Z,102656.91
2022-10-18T16:42:54.189Z,102653.72
2022-10-18T16:45:21.394Z,102650.56
2022-10-18T16:47:48.670Z,102661.50
2022-10-18T16:50:20.386Z,102665.44
2022-10-18T16:52:47.727Z,102666.63
2022-10-18T16:55:20.986Z,102669.63
2022-10-18T16:57:51.889Z,102669.13
2022-10-18T17:00:23.302Z,102673.88
2022-10-18T17:02:50.975Z,102675.94
2022-10-18T17:05:19.745Z,102669.13
2022-10-18T17:07:48.153Z,102665.97
2022-10-18T17:10:20.684Z,102668.03
2022-10-18T17:12:51.790Z,102670.94
2022-10-18T17:15:19.419Z,102667.75
2022-10-18T17:17:49.980Z,102672.50
2022-10-18T17:20:26.425Z,102684.25
2022-10-18T17:22:54.292Z,102680.09
2022-10-18T17:25:21.660Z,102687.34
2022-10-18T17:27:48.933Z,102695.44
2022-10-18T17:30:17.837Z,102693.94
2022-10-18T17:32:45.118Z,102698.56
2022-10-18T17:35:13.492Z,102711.94
2022-10-18T17:37:44.049Z,102707.69
2022-10-18T17:40:13.291Z,102702.59
2022-10-18T17:42:40.570Z,102720.31
2022-10-18T17:45:09.304Z,102718.00
2022-10-18T17:47:36.518Z,102719.94
2022-10-18T17:50:04.205Z,102729.81
2022-10-18T17:52:31.505Z,102726.59
2022-10-18T17:54:58.737Z,102729.53
2022-10-18T17:57:26.103Z,102729.81
2022-10-18T17:59:56.416Z,102723.97
2022-10-18T18:02:23.659Z,102724.34
2022-10-18T18:04:50.952Z,102729.09
2022-10-18T18:07:18.153Z,102732.00
2022-10-18T18:09:45.323Z,102731.53
2022-10-18T18:12:12.673Z,102735.25
2022-10-18T18:14:39.865Z,102729.47
2022-10-18T18:17:07.194Z,102734.03
2022-10-18T18:19:35.066Z,102736.94
2022-10-18T18:22:05.302Z,102745.03
2022-10-18T18:24:32.626Z,102736.41
2022-10-18T18:26:59.902Z,102734.00
2022-10-18T18:29:29.554Z,102746.50
2022-10-18T18:31:57.154Z,102742.28
2022-10-18T18:34:24.607Z,102728.47
2022-10-18T18:36:52.782Z,102738.25
2022-10-18T18:39:29.637Z,102743.66
2022-10-18T18:41:56.929Z,102740.34
2022-10-18T18:44:25.092Z,102741.38
2022-10-18T18:46:52.319Z,102746.78
2022-10-18T18:49:19.727Z,102738.16
2022-10-18T18:51:49.263Z,102735.72
2022-10-18T18:54:17.100Z,102737.59
2022-10-18T18:56:44.436Z,102734.25
2022-10-18T18:59:15.506Z,102729.13
2022-10-18T19:01:43.829Z,102731.06
2022-10-18T19:04:11.918Z,102728.63
2022-10-18T19:06:44.349Z,102727.06
2022-10-18T19:09:21.901Z,102725.41
2022-10-18T19:11:53.785Z,102727.34
2022-10-18T19:16:59.023Z,102732.78
2022-10-18T19:19:31.327Z,102734.59
2022-10-18T19:22:03.701Z,102735.63
2022-10-18T19:24:32.110Z,102735.72
2022-10-18T19:27:12.504Z,102733.13
2022-10-18T19:29:41.774Z,102736.78
2022-10-18T19:32:14.993Z,102727.31
2022-10-18T19:34:46.253Z,102735.31
2022-10-18T19:37:15.606Z,102735.41
2022-10-18T19:39:42.945Z,102738.13
2022-10-18T19:42:17.426Z,102740.81
2022-10-18T19:44:48.044Z,102742.66
2022-10-18T19:47:15.750Z,102754.16
2022-10-18T19:49:43.087Z,102748.09
2022-10-18T19:52:12.265Z,102745.59
2022-10-18T19:54:39.871Z,102750.09
2022-10-18T19:57:07.574Z,102746.69
2022-10-18T19:59:36.075Z,102745.06
2022-10-18T20:02:04.732Z,102744.31
2022-10-18T20:04:34.812Z,102740.91
2022-10-18T20:07:02.900Z,102735.72
2022-10-18T20:09:30.570Z,102747.16
2022-10-18T20:11:57.861Z,102750.72
2022-10-18T20:14:25.352Z,102750.75
2022-10-18T20:17:01.943Z,102754.31
2022-10-18T20:19:29.148Z,102752.63
2022-10-18T20:21:57.660Z,102755.28
2022-10-18T20:24:25.171Z,102757.06
2022-10-18T20:27:00.875Z,102749.34
2022-10-18T20:29:28.098Z,102749.34
2022-10-18T20:31:55.705Z,102757.31
2022-10-18T20:34:26.140Z,102755.63
2022-10-18T20:36:56.607Z,102753.94
2022-10-18T20:39:24.271Z,102749.66
2022-10-18T20:41:51.605Z,102757.56
2022-10-18T20:44:20.805Z,102753.28
2022-10-18T20:46:51.061Z,102744.59
2022-10-18T20:49:19.694Z,102744.69
2022-10-18T20:51:47.017Z,102749.97
2022-10-18T20:54:14.337Z,102733.47
2022-10-18T20:56:41.775Z,102734.44
2022-10-18T20:59:10.142Z,102730.09
2022-10-18T21:01:39.893Z,102733.63
2022-10-18T21:04:10.744Z,102734.53
2022-10-18T21:06:46.243Z,102741.53
2022-10-18T21:09:20.574Z,102726.84
2022-10-18T21:11:51.381Z,102740.03
2022-10-18T21:14:22.821Z,102727.81
2022-10-18T21:16:52.552Z,102729.63
2022-10-18T21:19:26.885Z,102727.03
2022-10-18T21:21:57.647Z,102727.91
2022-10-18T21:24:26.766Z,102734.91
2022-10-18T21:26:54.782Z,102727.09
2022-10-18T21:29:24.799Z,102734.09
2022-10-18T21:31:59.276Z,102717.59
2022-10-18T21:34:26.713Z,102717.63
2022-10-18T21:36:53.967Z,102717.66
2022-10-18T21:41:52.337Z,102713.41
2022-10-18T21:44:19.705Z,102711.72
2022-10-18T21:46:46.978Z,102717.88
2022-10-18T21:49:16.045Z,102718.75
2022-10-18T21:51:46.170Z,102731.91
2022-10-18T21:54:17.204Z,102721.50
2022-10-18T21:56:45.074Z,102731.13
2022-10-18T21:59:13.517Z,102720.69
2022-10-18T22:01:41.467Z,102715.50
2022-10-18T22:04:25.080Z,102717.28
2022-10-18T22:06:52.377Z,102721.66
2022-10-18T22:09:21.298Z,102720.00
2022-10-18T22:11:53.876Z,102716.53
2022-10-18T22:14:22.448Z,102718.31
2022-10-18T22:16:49.963Z,102724.47
2022-10-18T22:19:17.201Z,102716.69
2022-10-18T22:21:44.512Z,102718.47
2022-10-18T22:24:11.851Z,102719.38
2022-10-18T22:26:42.822Z,102727.25
2022-10-18T22:29:18.218Z,102722.09
2022-10-18T22:31:56.312Z,102723.06
2022-10-18T22:34:29.540Z,102730.06
2022-10-18T22:36:57.162Z,102717.03
2022-10-18T22:39:24.663Z,102721.47
2022-10-18T22:41:55.825Z,102719.78
2022-10-18T22:44:23.758Z,102719.84
2022-10-18T22:46:51.010Z,102720.81
2022-10-18T22:49:18.372Z,102721.78
2022-10-18T22:51:45.691Z,102715.78
2022-10-18T22:54:13.024Z,102720.19
2022-10-18T22:56:40.224Z,102726.38
2022-10-18T22:59:07.405Z,102721.19
2022-10-18T23:01:34.642Z,102723.88
2022-10-18T23:04:03.812Z,102723.03
2022-10-18T23:06:35.984Z,102719.56
2022-10-18T23:09:10.607Z,102724.00
2022-10-18T23:11:38.361Z,102721.44
2022-10-18T23:14:07.556Z,102719.72
2022-10-18T23:16:36.660Z,102720.69
2022-10-18T23:19:04.676Z,102711.13
2022-10-18T23:21:34.927Z,102718.13
2022-10-18T23:24:02.172Z,102716.44
2022-10-18T23:26:29.434Z,102717.38
2022-10-18T23:28:56.762Z,102727.88
2022-10-18T23:31:32.365Z,102720.97
2022-10-18T23:34:04.667Z,102718.41
2022-10-18T23:36:33.865Z,102721.03
2022-10-18T23:39:02.121Z,102724.53
2022-10-18T23:41:29.410Z,102720.19
2022-10-18T23:43:57.087Z,102726.34
2022-10-18T23:46:25.243Z,102722.03
2022-10-18T23:48:52.511Z,102724.69
2022-10-18T23:51:19.682Z,102718.63
2022-10-18T23:53:47.164Z,102725.63
2022-10-18T23:56:16.805Z,102725.66
2022-10-18T23:58:45.408Z,102722.19
